sensor_id;sensor_type;location;lat;lon;timestamp;P1;durP1;ratioP1;P2;durP2;ratioP2
74577;SDS011;63173;49.086;33.418;2022-12-13T00:01:42;53.88;;;16.70;;
74577;SDS011;63173;49.086;33.418;2022-12-13T00:04:09;50.80;;;17.42;;
74577;SDS011;63173;49.086;33.418;2022-12-13T00:06:35;43.35;;;15.85;;
74577;SDS011;63173;49.086;33.418;2022-12-13T00:09:01;43.75;;;15.95;;
74577;SDS011;63173;49.086;33.418;2022-12-13T00:11:28;44.90;;;16.33;;
74577;SDS011;63173;49.086;33.418;2022-12-13T00:13:54;47.47;;;17.20;;
74577;SDS011;63173;49.086;33.418;2022-12-13T00:16:20;50.22;;;18.45;;
74577;SDS011;63173;49.086;33.418;2022-12-13T00:18:49;58.97;;;20.98;;
74577;SDS011;63173;49.086;33.418;2022-12-13T00:21:17;57.58;;;18.27;;
74577;SDS011;63173;49.086;33.418;2022-12-13T00:23:45;45.50;;;17.45;;
74577;SDS011;63173;49.086;33.418;2022-12-13T00:26:15;46.15;;;16.30;;
74577;SDS011;63173;49.086;33.418;2022-12-13T00:28:42;44.88;;;16.70;;
74577;SDS011;63173;49.086;33.418;2022-12-13T00:31:08;47.10;;;15.93;;
74577;SDS011;63173;49.086;33.418;2022-12-13T00:33:36;51.60;;;17.00;;
74577;SDS011;63173;49.086;33.418;2022-12-13T00:38:29;50.05;;;16.15;;
74577;SDS011;63173;49.086;33.418;2022-12-13T00:40:55;51.28;;;17.45;;
74577;SDS011;63173;49.086;33.418;2022-12-13T00:43:20;52.85;;;16.73;;
74577;SDS011;63173;49.086;33.418;2022-12-13T00:45:46;54.17;;;17.33;;
74577;SDS011;63173;49.086;33.418;2022-12-13T00:48:12;54.22;;;17.90;;
74577;SDS011;63173;49.086;33.418;2022-12-13T00:50:38;61.58;;;19.65;;
74577;SDS011;63173;49.086;33.418;2022-12-13T00:53:04;55.17;;;17.85;;
74577;SDS011;63173;49.086;33.418;2022-12-13T00:55:30;56.22;;;18.38;;
74577;SDS011;63173;49.086;33.418;2022-12-13T00:57:55;54.28;;;18.85;;
74577;SDS011;63173;49.086;33.418;2022-12-13T01:00:21;56.72;;;19.52;;
74577;SDS011;63173;49.086;33.418;2022-12-13T01:02:47;59.22;;;20.02;;
74577;SDS011;63173;49.086;33.418;2022-12-13T01:05:13;62.20;;;20.15;;
74577;SDS011;63173;49.086;33.418;2022-12-13T01:07:38;54.70;;;19.25;;
74577;SDS011;63173;49.086;33.418;2022-12-13T01:10:08;45.22;;;16.83;;
74577;SDS011;63173;49.086;33.418;2022-12-13T01:12:34;50.72;;;16.23;;
74577;SDS011;63173;49.086;33.418;2022-12-13T01:15:00;54.70;;;17.65;;
74577;SDS011;63173;49.086;33.418;2022-12-13T01:17:26;43.95;;;16.00;;
74577;SDS011;63173;49.086;33.418;2022-12-13T01:19:51;46.38;;;15.93;;
74577;SDS011;63173;49.086;33.418;2022-12-13T01:22:17;63.33;;;20.42;;
74577;SDS011;63173;49.086;33.418;2022-12-13T01:24:43;55.47;;;18.60;;
74577;SDS011;63173;49.086;33.418;2022-12-13T01:27:09;54.70;;;18.23;;
74577;SDS011;63173;49.086;33.418;2022-12-13T01:29:35;71.55;;;19.70;;
74577;SDS011;63173;49.086;33.418;2022-12-13T01:32:01;58.55;;;19.13;;
74577;SDS011;63173;49.086;33.418;2022-12-13T01:34:27;59.67;;;18.70;;
74577;SDS011;63173;49.086;33.418;2022-12-13T01:36:53;55.22;;;18.25;;
74577;SDS011;63173;49.086;33.418;2022-12-13T01:39:19;60.20;;;19.88;;
74577;SDS011;63173;49.086;33.418;2022-12-13T01:41:46;57.53;;;18.73;;
74577;SDS011;63173;49.086;33.418;2022-12-13T01:49:58;53.30;;;19.75;;
74577;SDS011;63173;49.086;33.418;2022-12-13T01:52:29;54.60;;;18.20;;
74577;SDS011;63173;49.086;33.418;2022-12-13T01:54:57;59.63;;;18.02;;
74577;SDS011;63173;49.086;33.418;2022-12-13T01:57:25;57.22;;;19.33;;
74577;SDS011;63173;49.086;33.418;2022-12-13T01:59:51;56.50;;;19.10;;
74577;SDS011;63173;49.086;33.418;2022-12-13T02:02:18;61.80;;;19.10;;
74577;SDS011;63173;49.086;33.418;2022-12-13T02:07:26;57.80;;;18.42;;
74577;SDS011;63173;49.086;33.418;2022-12-13T02:09:55;53.75;;;18.58;;
74577;SDS011;63173;49.086;33.418;2022-12-13T02:12:27;52.22;;;18.33;;
74577;SDS011;63173;49.086;33.418;2022-12-13T02:14:54;52.90;;;18.70;;
74577;SDS011;63173;49.086;33.418;2022-12-13T02:17:27;52.33;;;19.13;;
74577;SDS011;63173;49.086;33.418;2022-12-13T02:26:22;59.00;;;17.90;;
74577;SDS011;63173;49.086;33.418;2022-12-13T02:29:04;52.83;;;16.50;;
74577;SDS011;63173;49.086;33.418;2022-12-13T02:31:55;50.67;;;17.13;;
74577;SDS011;63173;49.086;33.418;2022-12-13T02:34:26;52.47;;;17.02;;
74577;SDS011;63173;49.086;33.418;2022-12-13T02:37:26;57.38;;;17.80;;
74577;SDS011;63173;49.086;33.418;2022-12-13T02:40:06;54.75;;;17.15;;
74577;SDS011;63173;49.086;33.418;2022-12-13T02:42:43;56.88;;;18.33;;
74577;SDS011;63173;49.086;33.418;2022-12-13T02:45:19;60.15;;;20.05;;
74577;SDS011;63173;49.086;33.418;2022-12-13T02:47:53;53.17;;;16.90;;
74577;SDS011;63173;49.086;33.418;2022-12-13T02:50:22;49.60;;;17.05;;
74577;SDS011;63173;49.086;33.418;2022-12-13T02:52:50;55.10;;;17.60;;
74577;SDS011;63173;49.086;33.418;2022-12-13T02:55:17;52.78;;;18.27;;
74577;SDS011;63173;49.086;33.418;2022-12-13T02:57:43;49.22;;;16.75;;
74577;SDS011;63173;49.086;33.418;2022-12-13T03:00:15;55.55;;;18.45;;
74577;SDS011;63173;49.086;33.418;2022-12-13T03:02:45;50.33;;;17.73;;
74577;SDS011;63173;49.086;33.418;2022-12-13T03:05:26;54.15;;;17.63;;
74577;SDS011;63173;49.086;33.418;2022-12-13T03:08:38;55.90;;;17.63;;
74577;SDS011;63173;49.086;33.418;2022-12-13T03:11:16;51.55;;;17.33;;
74577;SDS011;63173;49.086;33.418;2022-12-13T03:16:39;49.22;;;17.05;;
74577;SDS011;63173;49.086;33.418;2022-12-13T03:19:08;56.05;;;17.33;;
74577;SDS011;63173;49.086;33.418;2022-12-13T03:21:40;60.35;;;19.42;;
74577;SDS011;63173;49.086;33.418;2022-12-13T03:24:08;54.50;;;18.85;;
74577;SDS011;63173;49.086;33.418;2022-12-13T03:26:34;59.53;;;17.85;;
74577;SDS011;63173;49.086;33.418;2022-12-13T03:29:02;56.13;;;18.90;;
74577;SDS011;63173;49.086;33.418;2022-12-13T03:31:27;54.53;;;18.35;;
74577;SDS011;63173;49.086;33.418;2022-12-13T03:33:53;59.72;;;18.52;;
74577;SDS011;63173;49.086;33.418;2022-12-13T03:36:18;60.88;;;18.85;;
74577;SDS011;63173;49.086;33.418;2022-12-13T03:38:45;57.22;;;19.38;;
74577;SDS011;63173;49.086;33.418;2022-12-13T03:41:13;54.63;;;17.58;;
74577;SDS011;63173;49.086;33.418;2022-12-13T03:43:41;50.60;;;17.58;;
74577;SDS011;63173;49.086;33.418;2022-12-13T03:46:07;47.38;;;16.25;;
74577;SDS011;63173;49.086;33.418;2022-12-13T03:48:33;39.15;;;14.98;;
74577;SDS011;63173;49.086;33.418;2022-12-13T03:50:59;44.17;;;16.35;;
74577;SDS011;63173;49.086;33.418;2022-12-13T03:53:26;44.85;;;15.07;;
74577;SDS011;63173;49.086;33.418;2022-12-13T03:55:53;44.30;;;15.52;;
74577;SDS011;63173;49.086;33.418;2022-12-13T03:58:19;41.78;;;15.63;;
74577;SDS011;63173;49.086;33.418;2022-12-13T04:00:45;41.45;;;15.88;;
74577;SDS011;63173;49.086;33.418;2022-12-13T04:03:11;41.03;;;14.02;;
74577;SDS011;63173;49.086;33.418;2022-12-13T04:05:36;42.35;;;14.80;;
74577;SDS011;63173;49.086;33.418;2022-12-13T04:08:02;41.63;;;14.77;;
74577;SDS011;63173;49.086;33.418;2022-12-13T04:10:28;40.40;;;14.25;;
74577;SDS011;63173;49.086;33.418;2022-12-13T04:12:54;35.47;;;12.82;;
74577;SDS011;63173;49.086;33.418;2022-12-13T04:15:38;35.50;;;13.27;;
74577;SDS011;63173;49.086;33.418;2022-12-13T04:18:04;38.47;;;14.52;;
74577;SDS011;63173;49.086;33.418;2022-12-13T04:20:30;39.72;;;14.77;;
74577;SDS011;63173;49.086;33.418;2022-12-13T04:22:56;36.58;;;13.63;;
74577;SDS011;63173;49.086;33.418;2022-12-13T04:25:21;38.67;;;14.25;;
74577;SDS011;63173;49.086;33.418;2022-12-13T04:27:47;41.60;;;14.23;;
74577;SDS011;63173;49.086;33.418;2022-12-13T04:30:13;33.15;;;12.68;;
74577;SDS011;63173;49.086;33.418;2022-12-13T04:32:39;35.45;;;12.93;;
74577;SDS011;63173;49.086;33.418;2022-12-13T04:35:04;33.38;;;12.65;;
74577;SDS011;63173;49.086;33.418;2022-12-13T04:37:30;38.20;;;13.95;;
74577;SDS011;63173;49.086;33.418;2022-12-13T04:39:56;35.17;;;12.80;;
74577;SDS011;63173;49.086;33.418;2022-12-13T04:42:22;38.03;;;12.40;;
74577;SDS011;63173;49.086;33.418;2022-12-13T04:44:47;37.75;;;13.75;;
74577;SDS011;63173;49.086;33.418;2022-12-13T04:47:14;32.90;;;12.77;;
74577;SDS011;63173;49.086;33.418;2022-12-13T04:49:40;40.17;;;19.85;;
74577;SDS011;63173;49.086;33.418;2022-12-13T04:52:05;33.47;;;13.40;;
74577;SDS011;63173;49.086;33.418;2022-12-13T04:54:31;35.13;;;14.18;;
74577;SDS011;63173;49.086;33.418;2022-12-13T04:56:57;35.95;;;13.15;;
74577;SDS011;63173;49.086;33.418;2022-12-13T04:59:23;33.90;;;13.13;;
74577;SDS011;63173;49.086;33.418;2022-12-13T05:01:49;34.75;;;13.48;;
74577;SDS011;63173;49.086;33.418;2022-12-13T05:04:15;35.38;;;13.70;;
74577;SDS011;63173;49.086;33.418;2022-12-13T05:06:40;33.28;;;13.82;;
74577;SDS011;63173;49.086;33.418;2022-12-13T05:09:06;31.80;;;12.80;;
74577;SDS011;63173;49.086;33.418;2022-12-13T05:11:32;32.80;;;12.90;;
74577;SDS011;63173;49.086;33.418;2022-12-13T05:13:57;35.13;;;13.30;;
74577;SDS011;63173;49.086;33.418;2022-12-13T05:16:24;35.97;;;12.40;;
74577;SDS011;63173;49.086;33.418;2022-12-13T05:18:49;33.15;;;12.98;;
74577;SDS011;63173;49.086;33.418;2022-12-13T05:21:15;34.80;;;12.70;;
74577;SDS011;63173;49.086;33.418;2022-12-13T05:23:40;41.88;;;16.25;;
74577;SDS011;63173;49.086;33.418;2022-12-13T05:26:06;43.13;;;14.73;;
74577;SDS011;63173;49.086;33.418;2022-12-13T05:28:32;40.25;;;15.50;;
74577;SDS011;63173;49.086;33.418;2022-12-13T05:31:03;45.20;;;15.23;;
74577;SDS011;63173;49.086;33.418;2022-12-13T05:33:31;36.47;;;14.32;;
74577;SDS011;63173;49.086;33.418;2022-12-13T05:35:57;41.38;;;15.60;;
74577;SDS011;63173;49.086;33.418;2022-12-13T05:38:22;34.45;;;12.75;;
74577;SDS011;63173;49.086;33.418;2022-12-13T05:40:48;41.33;;;15.13;;
74577;SDS011;63173;49.086;33.418;2022-12-13T05:43:14;35.45;;;14.55;;
74577;SDS011;63173;49.086;33.418;2022-12-13T05:45:40;39.70;;;14.23;;
74577;SDS011;63173;49.086;33.418;2022-12-13T05:48:06;37.47;;;13.63;;
74577;SDS011;63173;49.086;33.418;2022-12-13T05:50:33;46.88;;;16.95;;
74577;SDS011;63173;49.086;33.418;2022-12-13T05:52:59;42.22;;;14.45;;
74577;SDS011;63173;49.086;33.418;2022-12-13T05:55:24;42.88;;;14.15;;
74577;SDS011;63173;49.086;33.418;2022-12-13T05:57:50;32.80;;;12.60;;
74577;SDS011;63173;49.086;33.418;2022-12-13T06:00:16;34.10;;;13.95;;
74577;SDS011;63173;49.086;33.418;2022-12-13T06:02:42;46.00;;;15.38;;
74577;SDS011;63173;49.086;33.418;2022-12-13T06:05:09;34.63;;;13.48;;
74577;SDS011;63173;49.086;33.418;2022-12-13T06:07:36;39.65;;;14.15;;
74577;SDS011;63173;49.086;33.418;2022-12-13T06:10:05;33.83;;;14.40;;
74577;SDS011;63173;49.086;33.418;2022-12-13T06:12:34;38.85;;;13.85;;
74577;SDS011;63173;49.086;33.418;2022-12-13T06:15:01;39.13;;;14.52;;
74577;SDS011;63173;49.086;33.418;2022-12-13T06:17:32;38.95;;;14.13;;
74577;SDS011;63173;49.086;33.418;2022-12-13T06:19:58;37.58;;;14.18;;
74577;SDS011;63173;49.086;33.418;2022-12-13T06:22:24;36.35;;;14.68;;
74577;SDS011;63173;49.086;33.418;2022-12-13T06:24:50;36.17;;;13.77;;
74577;SDS011;63173;49.086;33.418;2022-12-13T06:27:16;37.78;;;13.55;;
74577;SDS011;63173;49.086;33.418;2022-12-13T06:29:42;34.67;;;12.50;;
74577;SDS011;63173;49.086;33.418;2022-12-13T06:32:08;34.38;;;13.43;;
74577;SDS011;63173;49.086;33.418;2022-12-13T06:34:34;38.57;;;12.87;;
74577;SDS011;63173;49.086;33.418;2022-12-13T06:37:01;37.70;;;13.98;;
74577;SDS011;63173;49.086;33.418;2022-12-13T06:39:28;37.78;;;14.77;;
74577;SDS011;63173;49.086;33.418;2022-12-13T06:41:54;33.53;;;11.93;;
74577;SDS011;63173;49.086;33.418;2022-12-13T06:44:20;37.97;;;12.35;;
74577;SDS011;63173;49.086;33.418;2022-12-13T06:46:46;51.75;;;16.58;;
74577;SDS011;63173;49.086;33.418;2022-12-13T06:49:11;33.95;;;12.88;;
74577;SDS011;63173;49.086;33.418;2022-12-13T06:51:37;33.55;;;13.35;;
74577;SDS011;63173;49.086;33.418;2022-12-13T06:54:03;32.78;;;13.32;;
74577;SDS011;63173;49.086;33.418;2022-12-13T06:56:29;36.60;;;14.05;;
74577;SDS011;63173;49.086;33.418;2022-12-13T06:58:55;35.72;;;12.50;;
74577;SDS011;63173;49.086;33.418;2022-12-13T07:01:21;38.67;;;12.90;;
74577;SDS011;63173;49.086;33.418;2022-12-13T07:03:47;41.85;;;13.65;;
74577;SDS011;63173;49.086;33.418;2022-12-13T07:06:13;37.33;;;13.27;;
74577;SDS011;63173;49.086;33.418;2022-12-13T07:08:41;33.15;;;12.50;;
74577;SDS011;63173;49.086;33.418;2022-12-13T07:11:12;39.65;;;13.10;;
74577;SDS011;63173;49.086;33.418;2022-12-13T07:13:39;40.05;;;14.43;;
74577;SDS011;63173;49.086;33.418;2022-12-13T07:16:05;37.90;;;13.52;;
74577;SDS011;63173;49.086;33.418;2022-12-13T07:18:31;44.17;;;12.70;;
74577;SDS011;63173;49.086;33.418;2022-12-13T07:20:57;35.95;;;12.73;;
74577;SDS011;63173;49.086;33.418;2022-12-13T07:23:23;34.80;;;12.90;;
74577;SDS011;63173;49.086;33.418;2022-12-13T07:25:52;38.83;;;13.60;;
74577;SDS011;63173;49.086;33.418;2022-12-13T07:28:19;34.95;;;12.07;;
74577;SDS011;63173;49.086;33.418;2022-12-13T07:30:46;34.97;;;12.48;;
74577;SDS011;63173;49.086;33.418;2022-12-13T07:33:12;36.17;;;12.35;;
74577;SDS011;63173;49.086;33.418;2022-12-13T07:35:38;35.17;;;12.48;;
74577;SDS011;63173;49.086;33.418;2022-12-13T07:38:07;35.60;;;12.90;;
74577;SDS011;63173;49.086;33.418;2022-12-13T07:40:34;34.75;;;11.85;;
74577;SDS011;63173;49.086;33.418;2022-12-13T07:43:01;36.35;;;14.15;;
74577;SDS011;63173;49.086;33.418;2022-12-13T07:45:26;39.00;;;13.73;;
74577;SDS011;63173;49.086;33.418;2022-12-13T07:47:52;35.10;;;13.50;;
74577;SDS011;63173;49.086;33.418;2022-12-13T07:50:18;35.35;;;13.27;;
74577;SDS011;63173;49.086;33.418;2022-12-13T07:52:46;37.15;;;14.68;;
74577;SDS011;63173;49.086;33.418;2022-12-13T07:55:12;39.22;;;14.52;;
74577;SDS011;63173;49.086;33.418;2022-12-13T07:57:39;37.88;;;13.48;;
74577;SDS011;63173;49.086;33.418;2022-12-13T08:00:04;48.03;;;16.52;;
74577;SDS011;63173;49.086;33.418;2022-12-13T08:02:31;39.67;;;14.50;;
74577;SDS011;63173;49.086;33.418;2022-12-13T08:04:56;45.20;;;15.65;;
74577;SDS011;63173;49.086;33.418;2022-12-13T08:07:22;42.10;;;15.35;;
74577;SDS011;63173;49.086;33.418;2022-12-13T08:09:48;47.33;;;15.48;;
74577;SDS011;63173;49.086;33.418;2022-12-13T08:12:13;57.88;;;22.27;;
74577;SDS011;63173;49.086;33.418;2022-12-13T08:14:39;46.75;;;17.80;;
74577;SDS011;63173;49.086;33.418;2022-12-13T08:17:05;41.65;;;16.02;;
74577;SDS011;63173;49.086;33.418;2022-12-13T08:19:30;43.83;;;15.15;;
74577;SDS011;63173;49.086;33.418;2022-12-13T08:21:56;50.78;;;17.77;;
74577;SDS011;63173;49.086;33.418;2022-12-13T08:24:22;44.40;;;15.48;;
74577;SDS011;63173;49.086;33.418;2022-12-13T08:26:49;49.00;;;17.23;;
74577;SDS011;63173;49.086;33.418;2022-12-13T08:29:15;54.13;;;18.95;;
74577;SDS011;63173;49.086;33.418;2022-12-13T08:31:40;49.75;;;19.05;;
74577;SDS011;63173;49.086;33.418;2022-12-13T08:34:06;51.35;;;18.05;;
74577;SDS011;63173;49.086;33.418;2022-12-13T08:36:32;47.15;;;18.33;;
74577;SDS011;63173;49.086;33.418;2022-12-13T08:38:58;52.42;;;20.38;;
74577;SDS011;63173;49.086;33.418;2022-12-13T08:41:26;44.53;;;17.92;;
74577;SDS011;63173;49.086;33.418;2022-12-13T08:43:53;51.63;;;18.08;;
74577;SDS011;63173;49.086;33.418;2022-12-13T08:46:18;49.30;;;16.65;;
74577;SDS011;63173;49.086;33.418;2022-12-13T08:48:44;46.55;;;17.17;;
74577;SDS011;63173;49.086;33.418;2022-12-13T08:51:11;47.60;;;18.73;;
74577;SDS011;63173;49.086;33.418;2022-12-13T08:53:39;49.83;;;17.92;;
74577;SDS011;63173;49.086;33.418;2022-12-13T08:56:06;51.15;;;18.40;;
74577;SDS011;63173;49.086;33.418;2022-12-13T08:58:36;55.20;;;18.33;;
74577;SDS011;63173;49.086;33.418;2022-12-13T09:01:06;45.65;;;16.23;;
74577;SDS011;63173;49.086;33.418;2022-12-13T09:03:33;53.28;;;18.23;;
74577;SDS011;63173;49.086;33.418;2022-12-13T09:06:09;52.45;;;19.65;;
74577;SDS011;63173;49.086;33.418;2022-12-13T09:08:37;48.22;;;18.70;;
74577;SDS011;63173;49.086;33.418;2022-12-13T09:11:03;54.30;;;19.75;;
74577;SDS011;63173;49.086;33.418;2022-12-13T09:13:31;49.92;;;17.70;;
74577;SDS011;63173;49.086;33.418;2022-12-13T09:16:08;45.22;;;16.25;;
74577;SDS011;63173;49.086;33.418;2022-12-13T09:18:37;48.13;;;16.80;;
74577;SDS011;63173;49.086;33.418;2022-12-13T09:21:09;46.60;;;16.60;;
74577;SDS011;63173;49.086;33.418;2022-12-13T09:23:36;47.42;;;15.38;;
74577;SDS011;63173;49.086;33.418;2022-12-13T09:26:02;40.97;;;14.70;;
74577;SDS011;63173;49.086;33.418;2022-12-13T09:28:28;52.13;;;15.82;;
74577;SDS011;63173;49.086;33.418;2022-12-13T09:30:55;47.60;;;15.25;;
74577;SDS011;63173;49.086;33.418;2022-12-13T09:33:21;40.97;;;14.32;;
74577;SDS011;63173;49.086;33.418;2022-12-13T09:35:46;35.42;;;14.35;;
74577;SDS011;63173;49.086;33.418;2022-12-13T09:38:13;45.17;;;16.25;;
74577;SDS011;63173;49.086;33.418;2022-12-13T09:40:38;50.15;;;16.98;;
74577;SDS011;63173;49.086;33.418;2022-12-13T09:43:09;45.47;;;17.20;;
74577;SDS011;63173;49.086;33.418;2022-12-13T09:45:40;47.05;;;16.45;;
74577;SDS011;63173;49.086;33.418;2022-12-13T09:48:10;48.13;;;16.70;;
74577;SDS011;63173;49.086;33.418;2022-12-13T09:50:47;44.35;;;15.73;;
74577;SDS011;63173;49.086;33.418;2022-12-13T09:53:15;46.38;;;16.15;;
74577;SDS011;63173;49.086;33.418;2022-12-13T09:55:46;47.05;;;16.25;;
74577;SDS011;63173;49.086;33.418;2022-12-13T09:58:16;47.40;;;15.90;;
74577;SDS011;63173;49.086;33.418;2022-12-13T10:00:48;43.10;;;14.60;;
74577;SDS011;63173;49.086;33.418;2022-12-13T10:03:17;46.05;;;15.88;;
74577;SDS011;63173;49.086;33.418;2022-12-13T10:05:47;54.75;;;17.83;;
74577;SDS011;63173;49.086;33.418;2022-12-13T10:08:22;49.60;;;16.88;;
74577;SDS011;63173;49.086;33.418;2022-12-13T10:10:51;54.17;;;19.00;;
74577;SDS011;63173;49.086;33.418;2022-12-13T10:16:26;56.83;;;18.13;;
74577;SDS011;63173;49.086;33.418;2022-12-13T10:19:00;42.38;;;15.18;;
74577;SDS011;63173;49.086;33.418;2022-12-13T10:21:38;44.20;;;15.70;;
74577;SDS011;63173;49.086;33.418;2022-12-13T10:24:17;47.83;;;14.68;;
74577;SDS011;63173;49.086;33.418;2022-12-13T10:26:49;45.47;;;15.02;;
74577;SDS011;63173;49.086;33.418;2022-12-13T10:29:15;51.75;;;16.42;;
74577;SDS011;63173;49.086;33.418;2022-12-13T10:31:42;39.42;;;13.75;;
74577;SDS011;63173;49.086;33.418;2022-12-13T10:34:25;42.05;;;13.88;;
74577;SDS011;63173;49.086;33.418;2022-12-13T10:36:52;42.55;;;15.13;;
74577;SDS011;63173;49.086;33.418;2022-12-13T10:39:34;39.90;;;13.18;;
74577;SDS011;63173;49.086;33.418;2022-12-13T10:42:08;33.45;;;13.35;;
74577;SDS011;63173;49.086;33.418;2022-12-13T10:44:39;46.88;;;14.27;;
74577;SDS011;63173;49.086;33.418;2022-12-13T10:49:39;48.60;;;15.75;;
74577;SDS011;63173;49.086;33.418;2022-12-13T10:54:54;45.47;;;15.35;;
74577;SDS011;63173;49.086;33.418;2022-12-13T10:57:21;45.08;;;14.65;;
74577;SDS011;63173;49.086;33.418;2022-12-13T10:59:47;35.28;;;13.25;;
74577;SDS011;63173;49.086;33.418;2022-12-13T11:02:33;32.45;;;12.02;;
74577;SDS011;63173;49.086;33.418;2022-12-13T11:10:39;43.13;;;14.30;;
74577;SDS011;63173;49.086;33.418;2022-12-13T11:15:46;29.55;;;10.00;;
74577;SDS011;63173;49.086;33.418;2022-12-13T11:18:20;41.90;;;14.25;;
74577;SDS011;63173;49.086;33.418;2022-12-13T11:20:52;42.17;;;13.85;;
74577;SDS011;63173;49.086;33.418;2022-12-13T11:26:10;40.75;;;14.13;;
74577;SDS011;63173;49.086;33.418;2022-12-13T11:29:04;34.85;;;11.32;;
74577;SDS011;63173;49.086;33.418;2022-12-13T11:32:07;34.42;;;11.23;;
74577;SDS011;63173;49.086;33.418;2022-12-13T11:40:13;32.95;;;11.30;;
74577;SDS011;63173;49.086;33.418;2022-12-13T11:45:18;30.38;;;11.00;;
74577;SDS011;63173;49.086;33.418;2022-12-13T11:48:00;37.47;;;12.98;;
74577;SDS011;63173;49.086;33.418;2022-12-13T11:50:34;34.70;;;11.98;;
74577;SDS011;63173;49.086;33.418;2022-12-13T11:55:52;35.35;;;11.98;;
74577;SDS011;63173;49.086;33.418;2022-12-13T11:58:42;37.40;;;13.05;;
74577;SDS011;63173;49.086;33.418;2022-12-13T12:01:13;37.75;;;13.30;;
74577;SDS011;63173;49.086;33.418;2022-12-13T12:08:55;36.10;;;10.93;;
74577;SDS011;63173;49.086;33.418;2022-12-13T12:14:29;31.33;;;10.95;;
74577;SDS011;63173;49.086;33.418;2022-12-13T12:17:02;39.55;;;13.07;;
74577;SDS011;63173;49.086;33.418;2022-12-13T12:19:41;39.25;;;12.68;;
74577;SDS011;63173;49.086;33.418;2022-12-13T12:25:19;32.08;;;10.60;;
74577;SDS011;63173;49.086;33.418;2022-12-13T12:27:54;37.92;;;12.30;;
74577;SDS011;63173;49.086;33.418;2022-12-13T12:30:23;30.73;;;10.55;;
74577;SDS011;63173;49.086;33.418;2022-12-13T12:33:14;46.10;;;15.40;;
74577;SDS011;63173;49.086;33.418;2022-12-13T12:35:56;103.50;;;29.05;;
74577;SDS011;63173;49.086;33.418;2022-12-13T12:41:15;45.65;;;15.70;;
74577;SDS011;63173;49.086;33.418;2022-12-13T12:44:02;28.83;;;11.25;;
74577;SDS011;63173;49.086;33.418;2022-12-13T12:49:27;30.02;;;10.73;;
74577;SDS011;63173;49.086;33.418;2022-12-13T12:55:11;41.78;;;15.07;;
74577;SDS011;63173;49.086;33.418;2022-12-13T13:00:45;32.42;;;11.43;;
74577;SDS011;63173;49.086;33.418;2022-12-13T13:03:22;40.60;;;12.98;;
74577;SDS011;63173;49.086;33.418;2022-12-13T13:08:43;24.52;;;9.40;;
74577;SDS011;63173;49.086;33.418;2022-12-13T13:11:27;24.50;;;10.38;;
74577;SDS011;63173;49.086;33.418;2022-12-13T13:16:28;24.48;;;8.38;;
74577;SDS011;63173;49.086;33.418;2022-12-13T13:18:56;26.55;;;9.48;;
74577;SDS011;63173;49.086;33.418;2022-12-13T13:21:30;28.95;;;11.02;;
74577;SDS011;63173;49.086;33.418;2022-12-13T13:26:36;29.48;;;9.23;;
74577;SDS011;63173;49.086;33.418;2022-12-13T13:32:01;29.25;;;10.82;;
74577;SDS011;63173;49.086;33.418;2022-12-13T13:34:37;31.17;;;10.23;;
74577;SDS011;63173;49.086;33.418;2022-12-13T13:42:24;27.25;;;9.52;;
74577;SDS011;63173;49.086;33.418;2022-12-13T13:44:58;23.50;;;8.77;;
74577;SDS011;63173;49.086;33.418;2022-12-13T14:12:52;17.25;;;7.13;;
74577;SDS011;63173;49.086;33.418;2022-12-13T14:30:13;20.25;;;6.93;;
74577;SDS011;63173;49.086;33.418;2022-12-13T14:32:42;27.50;;;8.50;;
74577;SDS011;63173;49.086;33.418;2022-12-13T14:35:30;24.65;;;8.48;;
74577;SDS011;63173;49.086;33.418;2022-12-13T14:37:58;26.27;;;8.77;;
74577;SDS011;63173;49.086;33.418;2022-12-13T14:40:29;28.13;;;8.88;;
74577;SDS011;63173;49.086;33.418;2022-12-13T14:42:58;27.55;;;9.40;;
74577;SDS011;63173;49.086;33.418;2022-12-13T14:45:25;19.38;;;6.93;;
74577;SDS011;63173;49.086;33.418;2022-12-13T14:48:02;33.42;;;11.32;;
74577;SDS011;63173;49.086;33.418;2022-12-13T14:50:33;29.83;;;10.40;;
74577;SDS011;63173;49.086;33.418;2022-12-13T14:53:01;35.50;;;12.35;;
74577;SDS011;63173;49.086;33.418;2022-12-13T14:55:31;32.47;;;10.98;;
74577;SDS011;63173;49.086;33.418;2022-12-13T14:58:00;35.53;;;12.80;;
74577;SDS011;63173;49.086;33.418;2022-12-13T15:00:29;35.00;;;11.95;;
74577;SDS011;63173;49.086;33.418;2022-12-13T15:02:58;28.13;;;10.00;;
74577;SDS011;63173;49.086;33.418;2022-12-13T15:05:32;24.63;;;9.32;;
74577;SDS011;63173;49.086;33.418;2022-12-13T15:08:09;22.38;;;7.88;;
74577;SDS011;63173;49.086;33.418;2022-12-13T15:10:40;28.65;;;9.50;;
74577;SDS011;63173;49.086;33.418;2022-12-13T15:13:17;22.15;;;8.27;;
74577;SDS011;63173;49.086;33.418;2022-12-13T15:15:54;25.83;;;10.00;;
74577;SDS011;63173;49.086;33.418;2022-12-13T15:18:25;23.88;;;7.93;;
74577;SDS011;63173;49.086;33.418;2022-12-13T15:20:53;19.92;;;7.18;;
74577;SDS011;63173;49.086;33.418;2022-12-13T15:25:47;24.17;;;8.85;;
74577;SDS011;63173;49.086;33.418;2022-12-13T15:28:44;25.90;;;9.50;;
74577;SDS011;63173;49.086;33.418;2022-12-13T15:31:11;27.58;;;9.75;;
74577;SDS011;63173;49.086;33.418;2022-12-13T15:33:38;25.67;;;9.32;;
74577;SDS011;63173;49.086;33.418;2022-12-13T15:38:35;28.63;;;9.48;;
74577;SDS011;63173;49.086;33.418;2022-12-13T15:41:04;29.75;;;10.43;;
74577;SDS011;63173;49.086;33.418;2022-12-13T15:43:41;31.30;;;9.90;;
74577;SDS011;63173;49.086;33.418;2022-12-13T15:46:11;23.08;;;8.75;;
74577;SDS011;63173;49.086;33.418;2022-12-13T15:48:41;31.13;;;11.88;;
74577;SDS011;63173;49.086;33.418;2022-12-13T15:51:15;26.08;;;9.93;;
74577;SDS011;63173;49.086;33.418;2022-12-13T15:58:59;29.65;;;10.57;;
74577;SDS011;63173;49.086;33.418;2022-12-13T16:01:30;36.00;;;11.77;;
74577;SDS011;63173;49.086;33.418;2022-12-13T16:04:00;37.92;;;12.10;;
74577;SDS011;63173;49.086;33.418;2022-12-13T16:06:29;32.85;;;11.63;;
74577;SDS011;63173;49.086;33.418;2022-12-13T16:08:57;35.88;;;12.45;;
74577;SDS011;63173;49.086;33.418;2022-12-13T16:11:26;29.23;;;10.60;;
74577;SDS011;63173;49.086;33.418;2022-12-13T16:16:54;36.28;;;13.35;;
74577;SDS011;63173;49.086;33.418;2022-12-13T16:19:21;39.85;;;13.43;;
74577;SDS011;63173;49.086;33.418;2022-12-13T16:21:47;38.83;;;13.35;;
74577;SDS011;63173;49.086;33.418;2022-12-13T16:24:13;41.45;;;13.60;;
74577;SDS011;63173;49.086;33.418;2022-12-13T16:26:42;37.40;;;12.75;;
74577;SDS011;63173;49.086;33.418;2022-12-13T16:29:13;45.15;;;15.35;;
74577;SDS011;63173;49.086;33.418;2022-12-13T16:31:43;35.47;;;13.23;;
74577;SDS011;63173;49.086;33.418;2022-12-13T16:34:09;35.17;;;12.23;;
74577;SDS011;63173;49.086;33.418;2022-12-13T16:36:35;35.95;;;13.43;;
74577;SDS011;63173;49.086;33.418;2022-12-13T16:39:02;34.25;;;13.57;;
74577;SDS011;63173;49.086;33.418;2022-12-13T16:41:28;30.30;;;11.80;;
74577;SDS011;63173;49.086;33.418;2022-12-13T16:43:55;33.95;;;11.82;;
74577;SDS011;63173;49.086;33.418;2022-12-13T16:46:26;31.88;;;11.55;;